Time;durP1;ratioP1;P1;durP2;ratioP2;P2;SDS_P1;SDS_P2;PMS_P1;PMS_P2;Temp;Humidity;BMP_temperature;BMP_pressure;BME280_temperature;BME280_humidity;BME280_pressure;Samples;Min_cycle;Max_cycle;Signal;HPM_P1;HPM_P2
2022/04/20 00:00:12;;;;;;;3.95;3.17;;;;;;;10.46;46.18;101439.53;5073938;28;20303;-77
2022/04/20 00:02:37;;;;;;;5.20;3.45;;;;;;;10.38;46.27;101434.75;5055338;28;20032;-77
2022/04/20 00:05:03;;;;;;;5.33;2.87;;;;;;;10.42;46.27;101446.84;5055480;28;20045;-77
2022/04/20 00:07:28;;;;;;;6.40;2.95;;;;;;;10.40;46.37;101448.75;5088177;28;20722;-77
2022/04/20 00:09:53;;;;;;;4.50;3.60;;;;;;;10.37;46.22;101456.91;5093448;28;20433;-77
2022/04/20 00:12:19;;;;;;;5.07;3.10;;;;;;;10.34;46.44;101446.50;5090650;28;20294;-77
2022/04/20 00:14:44;;;;;;;3.80;3.40;;;;;;;10.31;46.53;101449.34;5093228;28;20036;-77
2022/04/20 00:17:09;;;;;;;5.82;3.40;;;;;;;10.28;46.45;101445.06;5093195;28;20032;-77
2022/04/20 00:19:35;;;;;;;5.97;3.17;;;;;;;10.27;46.64;101445.19;5084232;28;20120;-77
2022/04/20 00:22:00;;;;;;;3.53;3.22;;;;;;;10.22;46.98;101447.28;5073142;28;20033;-77
2022/04/20 00:24:25;;;;;;;5.27;3.53;;;;;;;10.16;46.88;101452.03;5072950;28;20028;-77
2022/04/20 00:26:50;;;;;;;7.13;3.13;;;;;;;10.15;46.96;101450.31;5073412;28;20348;-77
2022/04/20 00:29:16;;;;;;;8.57;3.30;;;;;;;10.10;47.13;101449.78;5072669;28;20084;-77
2022/04/20 00:31:41;;;;;;;6.28;2.90;;;;;;;10.08;47.22;101459.66;5073162;28;20279;-77
2022/04/20 00:34:06;;;;;;;3.93;2.93;;;;;;;10.06;46.94;101458.03;5073465;28;20037;-77
2022/04/20 00:36:31;;;;;;;3.60;3.30;;;;;;;10.03;46.96;101455.59;5072972;28;20349;-77
2022/04/20 00:38:57;;;;;;;3.80;3.45;;;;;;;10.00;47.41;101456.63;5072898;28;20048;-77
2022/04/20 00:41:22;;;;;;;6.07;3.13;;;;;;;9.97;47.45;101452.38;5072730;28;20040;-78
2022/04/20 00:43:48;;;;;;;4.80;3.38;;;;;;;9.94;47.73;101468.50;5073145;28;20036;-77
2022/04/20 00:46:14;;;;;;;4.65;3.40;;;;;;;9.89;47.59;101461.78;5072919;28;20044;-77
2022/04/20 00:48:40;;;;;;;5.03;3.30;;;;;;;9.86;47.82;101461.97;5073066;28;20123;-78
2022/04/20 00:51:05;;;;;;;3.90;3.50;;;;;;;9.82;47.60;101470.16;5072726;28;20108;-77
2022/04/20 00:53:30;;;;;;;6.63;3.65;;;;;;;9.79;48.04;101470.34;5088161;28;20060;-77
2022/04/20 00:55:56;;;;;;;6.47;3.38;;;;;;;9.75;48.05;101466.16;5093004;28;20044;-76
2022/04/20 00:58:21;;;;;;;5.22;3.35;;;;;;;9.72;48.10;101462.84;5092951;28;20039;-77
2022/04/20 01:00:46;;;;;;;4.00;3.53;;;;;;;9.69;48.26;101463.91;5087267;28;20049;-77
2022/04/20 01:03:11;;;;;;;6.63;3.75;;;;;;;9.67;48.60;101459.63;5072741;28;20039;-77
2022/04/20 01:05:37;;;;;;;4.38;3.42;;;;;;;9.62;48.78;101465.22;5072851;28;20029;-77
2022/04/20 01:08:02;;;;;;;6.43;3.58;;;;;;;9.61;48.51;101464.38;5072631;28;20368;-77
2022/04/20 01:10:28;;;;;;;6.40;3.47;;;;;;;9.57;48.67;101465.50;5072607;28;20111;-77
2022/04/20 01:12:54;;;;;;;7.13;3.47;;;;;;;9.52;49.01;101470.25;5072342;28;20520;-77
2022/04/20 01:15:19;;;;;;;4.43;3.25;;;;;;;9.50;48.73;101466.00;5072536;28;20479;-77
2022/04/20 01:17:44;;;;;;;5.57;3.60;;;;;;;9.44;49.06;101470.75;5071242;28;20119;-77
2022/04/20 01:20:14;;;;;;;4.75;3.50;;;;;;;9.39;49.07;101461.34;5073917;28;20059;-77
2022/04/20 01:22:41;;;;;;;5.10;3.70;;;;;;;9.34;49.45;101466.97;5076087;28;20041;-77
2022/04/20 01:25:07;;;;;;;3.72;3.42;;;;;;;9.30;49.49;101467.22;5076028;28;20119;-77
2022/04/20 01:27:34;;;;;;;3.97;3.50;;;;;;;9.25;49.68;101459.56;5075788;28;20052;-77
2022/04/20 01:29:59;;;;;;;3.92;3.53;;;;;;;9.23;49.74;101466.75;5074676;28;20040;-77
2022/04/20 01:32:24;;;;;;;4.60;3.63;;;;;;;9.21;49.71;101471.31;5076028;28;20407;-78
2022/04/20 01:34:52;;;;;;;6.78;3.78;;;;;;;9.17;49.49;101472.41;5075904;28;20083;-78
2022/04/20 01:37:17;;;;;;;5.75;3.85;;;;;;;9.15;49.80;101474.31;5076234;28;20036;-77
2022/04/20 01:39:42;;;;;;;7.43;4.47;;;;;;;9.11;49.99;101478.97;5075697;28;20078;-77
2022/04/20 01:42:08;;;;;;;5.82;3.83;;;;;;;9.08;49.95;101477.31;5075859;28;20383;-77
2022/04/20 01:44:33;;;;;;;6.68;3.90;;;;;;;9.04;50.07;101473.19;5075674;28;20067;-77
2022/04/20 01:46:59;;;;;;;5.07;4.05;;;;;;;9.01;49.65;101473.34;5075605;28;20037;-77
2022/04/20 01:49:24;;;;;;;9.83;3.83;;;;;;;8.99;49.97;101469.94;5075528;28;20471;-77
2022/04/20 01:51:52;;;;;;;6.83;4.63;;;;;;;8.95;50.24;101473.72;5075653;28;20345;-77
2022/04/20 01:54:21;;;;;;;8.45;4.25;;;;;;;8.89;50.67;101476.72;5075612;28;20283;-77
2022/04/20 01:56:48;;;;;;;7.43;4.20;;;;;;;8.85;50.41;101472.56;5075095;28;20036;-77
2022/04/20 01:59:14;;;;;;;4.40;4.00;;;;;;;8.80;50.63;101471.97;5075458;28;20032;-77
2022/04/20 02:04:23;;;;;;;7.68;4.13;;;;;;;8.69;51.11;101462.00;5076107;28;20522;-77
2022/04/20 02:06:49;;;;;;;5.97;4.18;;;;;;;8.70;50.65;101471.66;5075870;28;20041;-77
2022/04/20 02:09:14;;;;;;;4.32;3.90;;;;;;;8.65;50.99;101471.94;5075007;28;20114;-77
2022/04/20 02:11:39;;;;;;;4.90;4.40;;;;;;;8.60;50.98;101474.00;5075240;28;20115;-77
2022/04/20 02:14:05;;;;;;;4.97;4.10;;;;;;;8.59;51.00;101474.06;5079496;28;20106;-77
2022/04/20 02:16:31;;;;;;;7.68;4.63;;;;;;;8.57;50.95;101470.69;5095453;28;20028;-77
2022/04/20 02:18:56;;;;;;;6.43;4.15;;;;;;;8.56;50.68;101476.91;5095148;28;20115;-77
2022/04/20 02:21:21;;;;;;;4.60;4.03;;;;;;;8.48;51.11;101464.97;5096011;28;20036;-77
2022/04/20 02:23:47;;;;;;;7.72;4.50;;;;;;;8.44;51.19;101459.94;5075324;28;20041;-77
2022/04/20 02:26:12;;;;;;;5.67;4.63;;;;;;;8.41;51.34;101468.00;5074760;28;20404;-76
2022/04/20 02:28:37;;;;;;;6.03;4.43;;;;;;;8.39;51.40;101467.25;5074413;28;20337;-77
2022/04/20 02:31:03;;;;;;;4.93;4.00;;;;;;;8.34;51.49;101468.38;5073886;28;20071;-77
2022/04/20 02:33:28;;;;;;;6.68;4.25;;;;;;;8.32;51.38;101474.69;5074456;28;20041;-78
2022/04/20 02:35:53;;;;;;;9.55;4.57;;;;;;;8.29;51.55;101469.56;5074882;28;20032;-77
2022/04/20 02:38:19;;;;;;;6.63;4.60;;;;;;;8.24;51.63;101468.97;5074622;28;20037;-77
2022/04/20 02:40:47;;;;;;;5.32;4.38;;;;;;;8.22;52.18;101470.88;5076464;28;20377;-77
2022/04/20 02:43:12;;;;;;;6.28;4.53;;;;;;;8.19;51.61;101469.25;5094881;28;20502;-77
2022/04/20 02:45:37;;;;;;;7.28;4.50;;;;;;;8.13;51.61;101459.03;5094691;28;20036;-77
2022/04/20 02:48:03;;;;;;;5.80;4.20;;;;;;;8.15;51.59;101471.22;5095369;28;20043;-77
2022/04/20 02:50:29;;;;;;;8.10;4.53;;;;;;;8.11;51.77;101471.47;5087934;28;20035;-77
2022/04/20 02:52:55;;;;;;;5.25;4.40;;;;;;;8.08;51.90;101474.31;5056490;28;20071;-76
2022/04/20 02:55:21;;;;;;;4.95;4.45;;;;;;;8.02;52.01;101478.13;5074348;28;20047;-77
2022/04/20 02:57:46;;;;;;;6.68;4.88;;;;;;;7.99;52.11;101478.28;5074697;28;20028;-78
2022/04/20 03:00:12;;;;;;;4.88;4.38;;;;;;;7.97;52.48;101482.81;5074730;28;20548;-77
2022/04/20 03:02:38;;;;;;;5.10;4.60;;;;;;;7.92;52.29;101477.78;5074898;28;20121;-77
2022/04/20 03:05:03;;;;;;;5.53;4.72;;;;;;;7.89;52.55;101482.41;5074155;28;20076;-76
2022/04/20 03:07:28;;;;;;;7.43;4.32;;;;;;;7.87;51.96;101478.97;5074092;28;20041;-77
2022/04/20 03:09:54;;;;;;;7.83;4.83;;;;;;;7.83;52.44;101483.59;5073932;28;20032;-77
2022/04/20 03:12:19;;;;;;;5.43;4.28;;;;;;;7.81;52.44;101484.59;5078107;28;20657;-77
2022/04/20 03:14:44;;;;;;;7.47;4.45;;;;;;;7.76;52.45;101485.72;5075279;28;20032;-78
2022/04/20 03:17:09;;;;;;;7.30;5.13;;;;;;;7.73;52.62;101479.75;5076896;28;20036;-77
2022/04/20 03:19:35;;;;;;;5.75;4.47;;;;;;;7.68;52.53;101482.63;5072380;28;20044;-77
2022/04/20 03:22:00;;;;;;;6.97;4.50;;;;;;;7.67;52.42;101482.72;5072203;28;20506;-78
2022/04/20 03:24:25;;;;;;;7.60;4.55;;;;;;;7.66;52.38;101486.28;5072458;28;20290;-77
2022/04/20 03:26:51;;;;;;;5.70;4.53;;;;;;;7.63;52.76;101489.09;5072014;28;20048;-77
2022/04/20 03:29:16;;;;;;;6.93;4.70;;;;;;;7.60;52.51;101488.31;5072028;28;20041;-77
2022/04/20 03:31:41;;;;;;;8.57;5.00;;;;;;;7.57;52.73;101491.13;5055524;28;20056;-77
2022/04/20 03:34:07;;;;;;;4.80;4.22;;;;;;;7.53;52.76;101497.53;5073554;28;20036;-77
2022/04/20 03:36:34;;;;;;;5.35;4.85;;;;;;;7.50;53.08;101495.06;5073502;28;20047;-77
2022/04/20 03:39:01;;;;;;;4.97;4.25;;;;;;;7.45;53.16;101505.00;5073641;28;20442;-77
2022/04/20 03:41:26;;;;;;;5.55;4.20;;;;;;;7.44;53.01;101499.81;5072779;28;20036;-77
2022/04/20 03:43:51;;;;;;;5.82;4.45;;;;;;;7.43;53.35;101506.00;5073096;28;20531;-76
2022/04/20 03:46:17;;;;;;;6.78;4.35;;;;;;;7.41;53.11;101503.44;5073979;28;20124;-76
2022/04/20 03:48:43;;;;;;;4.88;4.40;;;;;;;7.35;53.38;101504.66;5073381;28;20052;-77
2022/04/20 03:51:08;;;;;;;6.68;4.30;;;;;;;7.34;53.27;101496.78;5073188;28;20036;-77
2022/04/20 03:53:34;;;;;;;6.10;4.68;;;;;;;7.35;53.01;101504.66;5073483;28;20111;-77
2022/04/20 03:55:59;;;;;;;6.75;4.30;;;;;;;7.31;53.36;101503.09;5073317;28;20044;-78
2022/04/20 03:58:24;;;;;;;7.13;4.67;;;;;;;7.33;53.61;101500.38;5055448;28;20504;-77
2022/04/20 04:00:51;;;;;;;5.03;4.30;;;;;;;7.30;53.53;101511.13;5073073;28;20298;-77
2022/04/20 04:03:17;;;;;;;6.90;4.60;;;;;;;7.27;53.54;101512.13;5073655;28;20475;-77
2022/04/20 04:05:43;;;;;;;8.75;5.07;;;;;;;7.23;53.57;101511.41;5073094;28;20045;-77
2022/04/20 04:08:09;;;;;;;11.38;5.15;;;;;;;7.22;53.47;101515.00;5086790;28;20157;-77
2022/04/20 04:10:34;;;;;;;6.05;4.50;;;;;;;7.17;53.82;101505.59;5093343;28;20124;-77
2022/04/20 04:13:00;;;;;;;6.80;4.43;;;;;;;7.16;53.77;101515.31;5093412;28;20032;-77
2022/04/20 04:15:25;;;;;;;8.25;4.80;;;;;;;7.11;54.15;101509.44;5093417;28;20036;-77
2022/04/20 04:17:54;;;;;;;6.97;4.63;;;;;;;7.13;53.99;101514.63;5073695;28;20049;-77
2022/04/20 04:20:21;;;;;;;7.40;4.80;;;;;;;7.09;53.94;101521.00;5072903;28;20040;-77
2022/04/20 04:22:47;;;;;;;9.05;4.50;;;;;;;7.10;54.05;101528.00;5073259;28;20029;-77
2022/04/20 04:25:12;;;;;;;5.38;4.78;;;;;;;7.08;54.10;101519.28;5073011;28;20399;-77
2022/04/20 04:27:37;;;;;;;7.68;5.20;;;;;;;7.05;54.45;101525.59;5072753;28;20044;-76
2022/04/20 04:30:04;;;;;;;8.88;4.88;;;;;;;7.02;54.41;101533.66;5073190;28;20044;-77
2022/04/20 04:32:29;;;;;;;8.15;4.90;;;;;;;6.99;54.36;101523.25;5073098;28;20041;-77
2022/04/20 04:34:54;;;;;;;7.90;4.95;;;;;;;7.00;54.53;101530.25;5073312;28;20044;-77
2022/04/20 04:37:20;;;;;;;10.95;5.30;;;;;;;6.99;53.82;101534.66;5073496;28;20070;-76
2022/04/20 04:39:45;;;;;;;9.80;5.20;;;;;;;6.98;54.60;101540.03;5073821;28;20400;-77
2022/04/20 04:42:11;;;;;;;6.18;4.72;;;;;;;6.97;54.71;101540.97;5073716;28;20278;-77
2022/04/20 04:44:36;;;;;;;6.22;4.60;;;;;;;6.95;54.56;101546.31;5082667;28;20040;-77
2022/04/20 04:49:46;;;;;;;8.95;4.93;;;;;;;6.93;54.43;101550.81;5073301;28;20078;-77
2022/04/20 04:52:11;;;;;;;7.00;4.93;;;;;;;6.91;54.62;101546.53;5073527;28;20032;-77
2022/04/20 04:54:41;;;;;;;8.85;5.00;;;;;;;6.89;54.97;101556.34;5073687;28;20115;-77
2022/04/20 04:57:07;;;;;;;12.57;5.60;;;;;;;6.90;55.04;101558.06;5077080;28;20048;-77
2022/04/20 04:59:34;;;;;;;10.50;5.13;;;;;;;6.88;55.09;101557.25;5077370;28;20111;-77
2022/04/20 05:02:00;;;;;;;10.60;5.43;;;;;;;6.90;55.34;101565.97;5076825;28;20118;-76
2022/04/20 05:04:25;;;;;;;9.35;5.18;;;;;;;6.88;55.10;101551.97;5059133;28;20068;-78
2022/04/20 05:06:51;;;;;;;8.23;5.28;;;;;;;6.88;55.59;101562.53;5076520;28;20036;-77
2022/04/20 05:09:16;;;;;;;8.65;4.93;;;;;;;6.88;55.26;101563.41;5078819;28;20518;-77
2022/04/20 05:11:42;;;;;;;9.02;4.93;;;;;;;6.90;55.11;101558.91;5078963;28;20032;-77
2022/04/20 05:14:08;;;;;;;7.57;5.40;;;;;;;6.89;55.25;101558.97;5096896;28;20044;-77
2022/04/20 05:16:33;;;;;;;8.73;5.03;;;;;;;6.89;55.18;101558.97;5084478;28;20050;-78
2022/04/20 05:18:58;;;;;;;10.55;5.10;;;;;;;6.91;55.29;101549.19;5076722;28;20494;-77
2022/04/20 05:21:24;;;;;;;6.88;5.25;;;;;;;6.95;54.83;101553.41;5076103;28;20033;-77
2022/04/20 05:23:49;;;;;;;9.40;5.25;;;;;;;6.96;55.17;101552.44;5082084;28;20064;-77
2022/04/20 05:26:14;;;;;;;10.70;4.97;;;;;;;6.99;55.10;101552.28;5096204;28;20135;-77
2022/04/20 05:28:39;;;;;;;9.43;4.97;;;;;;;7.01;55.27;101561.00;5096403;28;20079;-77
2022/04/20 05:31:05;;;;;;;10.33;5.27;;;;;;;7.00;54.94;101554.00;5086083;28;20039;-77
2022/04/20 05:33:30;;;;;;;9.93;5.03;;;;;;;7.06;55.24;101563.41;5076494;28;20283;-77
2022/04/20 05:35:55;;;;;;;8.18;5.00;;;;;;;7.06;55.12;101560.75;5076109;28;20415;-77
2022/04/20 05:43:49;;;;;;;7.65;4.95;;;;;;;7.09;54.95;101574.66;5083059;28;20453;-77
2022/04/20 05:46:14;;;;;;;9.30;5.55;;;;;;;7.14;54.91;101577.94;5076898;28;20036;-77
2022/04/20 05:48:40;;;;;;;8.52;5.18;;;;;;;7.15;54.82;101573.53;5075738;28;20037;-77
2022/04/20 05:51:07;;;;;;;7.57;4.90;;;;;;;7.18;55.13;101570.72;5076399;28;20082;-77
2022/04/20 05:53:32;;;;;;;10.60;4.93;;;;;;;7.22;54.97;101580.19;5084156;28;20036;-77
2022/04/20 05:55:58;;;;;;;11.15;5.72;;;;;;;7.26;54.94;101584.41;5095808;28;20029;-77
2022/04/20 05:58:23;;;;;;;11.40;5.45;;;;;;;7.30;54.71;101577.19;5095233;28;20074;-76
2022/04/20 06:00:48;;;;;;;8.63;5.53;;;;;;;7.34;54.84;101584.00;5096639;28;20471;-77
2022/04/20 06:03:14;;;;;;;8.88;5.43;;;;;;;7.37;54.88;101573.28;5095770;28;20028;-77
2022/04/20 06:05:41;;;;;;;10.07;5.00;;;;;;;7.43;54.79;101575.59;5080197;28;20036;-77
2022/04/20 06:08:06;;;;;;;10.23;5.65;;;;;;;7.48;55.07;101573.59;5076872;28;20048;-77
2022/04/20 06:10:32;;;;;;;8.85;5.15;;;;;;;7.54;54.45;101572.41;5075315;28;20076;-76
2022/04/20 06:12:58;;;;;;;13.15;5.63;;;;;;;7.60;54.70;101580.84;5075172;28;20042;-78
2022/04/20 06:15:24;;;;;;;7.63;5.60;;;;;;;7.66;54.62;101576.19;5095902;28;20390;-77
2022/04/20 06:17:49;;;;;;;6.20;5.60;;;;;;;7.70;54.33;101575.94;5095675;28;20032;-77
2022/04/20 06:20:14;;;;;;;6.75;5.13;;;;;;;7.76;54.42;101580.03;5095310;28;20032;-77
2022/04/20 06:22:40;;;;;;;8.15;5.63;;;;;;;7.82;54.15;101577.09;5083449;28;20035;-77
2022/04/20 06:25:05;;;;;;;8.70;5.82;;;;;;;7.88;54.41;101576.75;5083131;28;20068;-77
2022/04/20 06:27:31;;;;;;;10.25;5.40;;;;;;;7.96;54.32;101577.22;5093116;28;20063;-77
2022/04/20 06:29:57;;;;;;;9.55;5.40;;;;;;;8.06;53.81;101588.16;5071020;28;20107;-77
2022/04/20 06:32:24;;;;;;;10.80;5.90;;;;;;;8.14;53.60;101583.31;5095057;28;20028;-77
2022/04/20 06:34:53;;;;;;;9.68;5.40;;;;;;;8.22;53.76;101582.03;5094825;28;20425;-77
2022/04/20 06:37:18;;;;;;;7.93;5.28;;;;;;;8.30;53.40;101582.44;5089758;28;20385;-78
2022/04/20 06:39:44;;;;;;;11.43;5.57;;;;;;;8.40;53.08;101582.81;5074669;28;20032;-78
2022/04/20 06:42:10;;;;;;;6.72;5.28;;;;;;;8.48;52.65;101591.22;5079166;28;20044;-77
2022/04/20 06:44:35;;;;;;;9.95;5.40;;;;;;;8.59;52.77;101595.88;5095016;28;20056;-78
2022/04/20 06:47:00;;;;;;;5.90;4.77;;;;;;;8.68;52.41;101585.63;5094519;28;20036;-77
2022/04/20 06:49:25;;;;;;;7.93;5.22;;;;;;;8.79;52.28;101585.03;5094617;28;20357;-77
2022/04/20 07:00:06;;;;;;;11.77;5.78;;;;;;;9.51;51.43;101584.38;5090705;28;20043;-77
2022/04/20 07:02:31;;;;;;;11.63;5.68;;;;;;;9.77;50.87;101588.09;5074428;28;20118;-77
2022/04/20 07:04:56;;;;;;;8.20;5.20;;;;;;;10.03;49.76;101586.50;5073938;28;20471;-78
2022/04/20 07:07:22;;;;;;;8.07;5.07;;;;;;;10.27;48.99;101572.63;5078744;28;20058;-78
2022/04/20 07:09:47;;;;;;;8.65;5.13;;;;;;;10.59;49.10;101580.34;5093727;28;20043;-78
2022/04/20 07:12:12;;;;;;;9.40;5.27;;;;;;;10.84;47.37;101580.47;5076070;28;20094;-78
2022/04/20 07:14:39;;;;;;;8.63;5.03;;;;;;;11.18;47.70;101580.84;5094368;28;20843;-79
2022/04/20 07:17:04;;;;;;;11.60;4.78;;;;;;;11.53;47.90;101572.28;5094379;28;20479;-78
2022/04/20 07:19:30;;;;;;;7.70;4.95;;;;;;;11.81;44.86;101571.22;5079799;28;20048;-78
2022/04/20 07:21:55;;;;;;;7.55;4.95;;;;;;;12.15;44.89;101571.50;5074532;28;20037;-78
2022/04/20 07:24:20;;;;;;;8.20;4.10;;;;;;;12.34;44.28;101567.50;5080510;28;20049;-78
2022/04/20 07:26:46;;;;;;;10.10;5.43;;;;;;;12.54;43.42;101569.59;5084453;28;20055;-79
2022/04/20 07:29:11;;;;;;;4.78;4.15;;;;;;;12.83;43.27;101576.41;5074933;28;20279;-78
2022/04/20 07:31:36;;;;;;;6.32;4.28;;;;;;;13.07;42.08;101577.22;5075903;28;20415;-78
2022/04/20 07:34:02;;;;;;;5.55;4.53;;;;;;;13.29;41.78;101572.94;5073655;28;20063;-80
2022/04/20 07:36:27;;;;;;;9.88;4.47;;;;;;;13.57;40.90;101568.97;5061769;28;20082;-77
2022/04/20 07:38:52;;;;;;;7.13;4.35;;;;;;;13.87;39.79;101578.22;5093584;28;20059;-78
2022/04/20 07:41:18;;;;;;;9.07;4.80;;;;;;;14.09;39.49;101573.84;5093324;28;20493;-78
2022/04/20 07:43:43;;;;;;;7.53;4.22;;;;;;;14.36;39.08;101584.16;5079044;28;20267;-78
2022/04/20 07:46:08;;;;;;;5.72;4.05;;;;;;;14.65;38.11;101578.28;5090972;28;20487;-78
2022/04/20 07:48:34;;;;;;;5.88;4.20;;;;;;;14.84;37.79;101572.25;5075626;28;20463;-78
2022/04/20 07:51:02;;;;;;;6.47;3.72;;;;;;;15.13;37.69;101569.84;5093570;28;20039;-78
2022/04/20 07:53:27;;;;;;;9.15;4.50;;;;;;;15.44;36.97;101577.94;5094363;28;20044;-78
2022/04/20 07:55:53;;;;;;;9.35;3.80;;;;;;;15.77;37.01;101584.94;5093894;28;20028;-80
2022/04/20 07:58:18;;;;;;;10.00;4.07;;;;;;;16.05;36.14;101582.50;5093106;28;20066;-80
2022/04/20 08:00:45;;;;;;;6.38;3.95;;;;;;;16.24;35.32;101579.88;5093046;28;20467;-79
2022/04/20 08:03:17;;;;;;;9.60;4.13;;;;;;;16.45;35.13;101569.06;5092816;28;20475;-79
2022/04/20 08:05:48;;;;;;;10.45;4.15;;;;;;;16.67;34.81;101574.31;5089058;28;20371;-79
2022/04/20 08:08:13;;;;;;;7.30;3.80;;;;;;;16.81;34.06;101581.97;5084371;28;20111;-79
2022/04/20 08:10:39;;;;;;;7.97;3.80;;;;;;;17.08;33.08;101581.28;5090425;28;20088;-79
2022/04/20 08:14:09;;;;;;;7.00;3.85;;;;;;;17.23;32.68;101586.22;5092996;28;20437;-80
2022/04/20 08:15:50;;;;;;;5.80;3.90;;;;;;;17.55;31.58;101583.19;5092693;28;20097;-80
2022/04/20 08:18:16;;;;;;;5.15;4.20;;;;;;;17.79;31.26;101584.53;5093210;28;20032;-80
2022/04/20 08:20:41;;;;;;;5.18;3.90;;;;;;;17.90;30.63;101584.38;5092739;28;20478;-78
2022/04/20 08:23:07;;;;;;;9.00;4.30;;;;;;;18.07;30.45;101578.22;5092995;28;20090;-77
2022/04/20 08:25:32;;;;;;;7.17;4.00;;;;;;;18.33;30.69;101582.88;5092823;28;20310;-78
2022/04/20 08:27:57;;;;;;;4.75;3.65;;;;;;;18.72;30.64;101576.41;5090002;28;20286;-78
2022/04/20 08:30:23;;;;;;;11.18;3.92;;;;;;;18.99;29.61;101581.75;5096154;28;20032;-78
2022/04/20 08:32:48;;;;;;;5.65;4.22;;;;;;;18.97;29.63;101578.38;5091842;28;20127;-78
2022/04/20 08:35:13;;;;;;;8.00;4.30;;;;;;;19.23;29.83;101577.56;5077222;28;20036;-78
2022/04/20 08:37:38;;;;;;;8.77;3.38;;;;;;;19.47;29.89;101584.13;5097203;28;20650;-78
2022/04/20 08:40:05;;;;;;;7.07;4.32;;;;;;;19.44;27.84;101579.06;5097401;28;20036;-78
2022/04/20 08:42:34;;;;;;;6.10;3.85;;;;;;;19.51;29.00;101572.88;5083303;28;20040;-77
2022/04/20 08:45:02;;;;;;;;;;;;;;;19.89;31.46;101578.03;5077551;28;20376;-77
2022/04/20 08:47:34;;;;;;;6.35;4.15;;;;;;;19.84;28.78;101577.66;5076817;28;19962;-77
2022/04/20 08:50:01;;;;;;;7.95;4.25;;;;;;;19.91;28.20;101573.31;5078394;28;20033;-77
2022/04/20 08:52:41;;;;;;;8.88;4.05;;;;;;;19.88;28.09;101573.63;5091884;28;20466;-77
2022/04/20 08:55:15;;;;;;;6.70;4.60;;;;;;;20.08;29.10;101574.22;5096230;28;20478;-77
2022/04/20 08:57:44;;;;;;;7.15;4.30;;;;;;;20.23;28.62;101572.59;5081663;28;20040;-77
2022/04/20 09:00:22;;;;;;;14.40;4.45;;;;;;;20.40;27.42;101559.16;5092360;28;20115;-77
2022/04/20 09:02:52;;;;;;;7.18;4.60;;;;;;;20.43;26.91;101559.66;5084543;28;20064;-77
2022/04/20 09:05:18;;;;;;;8.20;4.53;;;;;;;20.45;26.09;101559.50;5100187;28;20483;-77
2022/04/20 09:07:44;;;;;;;8.68;4.95;;;;;;;20.63;26.62;101571.06;5081795;28;20119;-78
2022/04/20 09:10:10;;;;;;;6.85;4.80;;;;;;;20.71;26.65;101562.13;5077812;28;20123;-77
2022/04/20 09:12:41;;;;;;;7.05;3.97;;;;;;;20.83;26.27;101566.19;5090646;28;20040;-77
2022/04/20 09:15:07;;;;;;;5.60;4.18;;;;;;;21.20;25.96;101559.44;5096798;28;20110;-77
2022/04/20 09:17:44;;;;;;;5.30;4.50;;;;;;;21.15;25.57;101569.03;5077691;28;20055;-77
2022/04/20 09:20:16;;;;;;;7.63;4.20;;;;;;;21.08;25.20;101558.06;5093485;28;20036;-78
2022/04/20 09:22:57;;;;;;;8.00;4.20;;;;;;;21.13;25.26;101560.28;5097755;28;20427;-77
2022/04/20 09:25:50;;;;;;;10.23;4.10;;;;;;;21.22;25.46;101559.25;5096831;28;20035;-79
2022/04/20 09:28:15;;;;;;;6.35;4.05;;;;;;;21.51;25.04;101557.88;5070580;28;20045;-79
2022/04/20 09:30:42;;;;;;;7.68;4.43;;;;;;;21.61;24.67;101553.13;5076482;28;20067;-78
2022/04/20 09:33:10;;;;;;;13.95;4.40;;;;;;;21.81;24.59;101551.69;5076188;28;20399;-77
2022/04/20 09:35:47;;;;;;;8.60;4.10;;;;;;;21.92;24.77;101546.97;5075877;28;20048;-77
2022/04/20 09:38:13;;;;;;;8.82;3.88;;;;;;;22.11;24.13;101542.97;5073509;28;20044;-77
2022/04/20 09:40:39;;;;;;;8.80;4.10;;;;;;;22.17;24.16;101540.41;5061482;28;20379;-78
2022/04/20 09:43:06;;;;;;;3.95;3.60;;;;;;;22.46;24.62;101538.91;5065413;28;20028;-78
2022/04/20 09:45:33;;;;;;;6.30;4.28;;;;;;;22.31;23.67;101543.41;5065596;28;20032;-77
2022/04/20 09:51:08;;;;;;;6.82;3.65;;;;;;;22.89;23.82;101533.84;5073341;28;20119;-79
2022/04/20 09:53:34;;;;;;;6.65;3.53;;;;;;;22.64;22.12;101540.50;5051952;28;20037;-78
2022/04/20 09:56:17;;;;;;;6.40;3.10;;;;;;;22.58;23.97;101538.50;5055794;28;20033;-78
2022/04/20 09:58:44;;;;;;;4.97;3.17;;;;;;;22.48;23.50;101545.00;5055696;28;20396;-78
2022/04/20 10:01:24;;;;;;;7.60;3.45;;;;;;;22.35;24.37;101531.22;5055827;28;20075;-78
2022/04/20 10:03:54;;;;;;;3.40;3.10;;;;;;;22.47;24.33;101523.53;5055391;28;20029;-78
2022/04/20 10:06:19;;;;;;;6.63;3.65;;;;;;;22.70;23.67;101534.38;5055063;28;20045;-78
2022/04/20 10:08:44;;;;;;;5.57;3.20;;;;;;;22.99;23.70;101524.63;5055303;28;20103;-78
2022/04/20 10:11:13;;;;;;;5.30;2.73;;;;;;;23.06;22.74;101529.16;5054897;28;20287;-78
2022/04/20 10:13:39;;;;;;;3.75;2.70;;;;;;;23.15;22.80;101523.66;5054981;28;20268;-78
2022/04/20 10:16:09;;;;;;;6.28;3.10;;;;;;;23.16;22.81;101520.75;5056258;28;20055;-78
2022/04/20 10:18:39;;;;;;;7.43;3.13;;;;;;;23.02;22.26;101524.28;5073637;28;20052;-78
2022/04/20 10:21:11;;;;;;;4.38;3.05;;;;;;;22.97;22.40;101508.56;5074308;28;20048;-78
2022/04/20 10:23:40;;;;;;;6.53;3.00;;;;;;;23.08;22.97;101518.13;5074929;28;20058;-79
2022/04/20 10:26:10;;;;;;;4.43;2.67;;;;;;;23.23;22.43;101510.91;5077946;28;20455;-78
2022/04/20 10:29:10;;;;;;;6.82;2.67;;;;;;;23.40;23.14;101506.13;5094708;28;20043;-79
2022/04/20 10:32:02;;;;;;;5.00;2.55;;;;;;;23.36;22.58;101502.09;5094940;28;20505;-78
2022/04/20 10:34:28;;;;;;;4.93;2.80;;;;;;;23.28;21.94;101494.91;5095005;28;20044;-78
2022/04/20 10:36:57;;;;;;;4.75;2.80;;;;;;;23.20;22.04;101508.56;5094834;28;20540;-79
2022/04/20 10:39:25;;;;;;;5.68;3.00;;;;;;;23.12;22.11;101505.09;5094419;28;20040;-80
2022/04/20 10:42:10;;;;;;;2.70;2.50;;;;;;;23.24;22.86;101499.00;5095109;28;20036;-78
2022/04/20 10:45:03;;;;;;;3.28;2.67;;;;;;;23.23;22.36;101500.06;5094771;28;20649;-78
2022/04/20 10:47:42;;;;;;;5.63;2.40;;;;;;;22.94;22.14;101499.97;5095030;28;20046;-81
2022/04/20 10:50:20;;;;;;;6.32;2.50;;;;;;;23.03;22.57;101491.59;5076123;28;20544;-80
2022/04/20 10:52:48;;;;;;;4.40;2.75;;;;;;;22.99;21.89;101494.84;5084756;28;20028;-80
2022/04/20 10:55:13;;;;;;;3.60;2.58;;;;;;;22.95;22.49;101497.06;5086401;28;20032;-80
2022/04/20 10:57:41;;;;;;;3.33;2.35;;;;;;;23.07;22.51;101492.09;5094399;28;20039;-79
2022/04/20 11:00:19;;;;;;;6.00;2.65;;;;;;;23.35;22.84;101484.16;5094046;28;20048;-79
2022/04/20 11:02:52;;;;;;;3.23;2.40;;;;;;;23.53;22.06;101491.06;5094035;28;20029;-80
2022/04/20 11:05:22;;;;;;;6.38;2.70;;;;;;;23.41;22.11;101480.69;5093970;28;20421;-81
2022/04/20 11:07:59;;;;;;;10.25;3.00;;;;;;;23.51;22.48;101479.56;5082744;28;20074;-80
2022/04/20 11:10:25;;;;;;;3.80;2.45;;;;;;;23.72;22.03;101468.81;5094274;28;20040;-80
2022/04/20 11:18:38;;;;;;;2.97;2.35;;;;;;;23.83;21.38;101470.22;5093568;28;20102;-80
2022/04/20 11:18:39;;;;;;;4.75;2.40;;;;;;;23.64;21.47;101467.03;5073899;28;20086;-80
2022/04/20 11:21:07;;;;;;;3.90;2.20;;;;;;;23.86;22.40;101464.41;5085864;28;20050;-81
2022/04/20 11:24:01;;;;;;;4.10;2.60;;;;;;;24.15;22.42;101449.94;5093827;28;20123;-82
2022/04/20 11:26:40;;;;;;;3.97;2.30;;;;;;;24.29;22.17;101456.31;5093836;28;20062;-79
2022/04/20 11:29:08;;;;;;;;;;;;;;;24.72;23.50;101464.47;5094320;28;20063;-81
2022/04/20 11:31:42;;;;;;;10.77;2.80;;;;;;;24.54;21.87;101455.94;5071323;28;19935;-80
2022/04/20 11:34:09;;;;;;;6.53;2.45;;;;;;;24.49;21.66;101447.53;5073833;28;20110;-80
2022/04/20 11:36:39;;;;;;;5.68;2.63;;;;;;;24.28;21.22;101445.66;5073698;28;20068;-79
2022/04/20 11:39:05;;;;;;;2.65;2.45;;;;;;;24.17;21.69;101436.16;5073454;28;20032;-79
2022/04/20 11:41:31;;;;;;;2.40;2.20;;;;;;;23.87;21.08;101441.69;5073401;28;20047;-79
2022/04/20 11:44:02;;;;;;;5.22;2.40;;;;;;;23.78;21.67;101445.50;5085832;28;20059;-79
2022/04/20 11:46:27;;;;;;;2.90;2.60;;;;;;;23.91;22.68;101434.00;5092947;28;20472;-79
2022/04/20 11:48:55;;;;;;;5.20;2.85;;;;;;;23.74;22.12;101430.66;5084184;28;20028;-79
2022/04/20 11:51:23;;;;;;;4.45;2.55;;;;;;;23.67;22.30;101430.56;5091162;28;20537;-79
2022/04/20 11:53:49;;;;;;;5.65;2.78;;;;;;;23.72;22.39;101435.44;5093459;28;20056;-81